This is the latest recevied weather packets stored in our database for station/object SQ5SUI-3. If no packets are shown the sender has not sent any weather packets the latest 1 day(s).
| Time | Temp. | Humidity | Pressure | Rain* | Wind** | Luminosity | Snow |
|---|---|---|---|---|---|---|---|
| 1836274504 | 13.33° C | 99% | 1001.1 hPa | 0 mm | 0.45 m/s, 170° | - | - |
| 1836274227 | 13.33° C | 99% | 1000.7 hPa | 0 mm | 0 m/s | - | - |
| 1778034810 | 13.33° C | 52% | 1021.1 hPa | 0 mm | 0 m/s | - | - |
| 1778033008 | 13.89° C | 50% | 1020.7 hPa | 0 mm | 0 m/s | - | - |
| 1778031209 | 13.89° C | 52% | 1020.6 hPa | 0 mm | 0 m/s | - | - |
| 1778029410 | 13.33° C | 52% | 1020.8 hPa | 0 mm | 0.45 m/s, 163° | - | - |
| 1778027609 | 12.78° C | 53% | 1020.7 hPa | 0 mm | 0.45 m/s, 168° | - | - |
| 1778025809 | 13.33° C | 52% | 1020.9 hPa | 0 mm | 0.45 m/s, 161° | - | - |
| 1778024009 | 13.33° C | 51% | 1020.9 hPa | 0 mm | 0.89 m/s, 166° | - | - |
| 1778022208 | 13.89° C | 51% | 1021.3 hPa | 0 mm | 0.45 m/s, 186° | - | - |
| 1778020410 | 14.44° C | 48% | 1021.3 hPa | 0 mm | 0.45 m/s, 166° | - | - |
| 1778018609 | 15° C | 46% | 1021.3 hPa | 0 mm | 0.45 m/s, 163° | - | - |
| 1778016809 | 15° C | 46% | 1021.5 hPa | 0 mm | 0.45 m/s, 168° | - | - |
| 1778015009 | 16.11° C | 44% | 1021.4 hPa | 0 mm | 0.89 m/s, 176° | - | - |
| 1778013208 | 17.22° C | 39% | 1021.5 hPa | 0 mm | 0.45 m/s, 170° | - | - |
| 1778011408 | 17.78° C | 39% | 1021.7 hPa | 0 mm | 0.89 m/s, 201° | - | - |
| 1778009609 | 17.78° C | 39% | 1022.6 hPa | 0 mm | 0.45 m/s, 165° | - | - |
| 1778007808 | 20° C | 34% | 1022.7 hPa | 0 mm | 1.34 m/s, 146° | - | - |
| 1778006009 | 20.56° C | 31% | 1023.1 hPa | 0 mm | 0.89 m/s, 156° | - | - |
| 1778004208 | 22.22° C | 22% | 1023.5 hPa | 0 mm | 1.34 m/s, 137° | - | - |
| 1778002409 | 23.89° C | 21% | 1023.1 hPa | 0 mm | 0.89 m/s, 139° | - | - |
| 1778000607 | 25.56° C | 19% | 1023.1 hPa | 0 mm | 1.34 m/s, 152° | - | - |
| 1777998808 | 26.11° C | 10% | 1022.7 hPa | 0 mm | 0.89 m/s, 141° | - | - |
| 1777996859 | 25.56° C | 10% | 1023 hPa | 0 mm | 0.45 m/s, 139° | - | - |
| 1777995059 | 25.56° C | 10% | 1022.9 hPa | 0 mm | 1.34 m/s, 149° | - | - |
* Rain latest hour (hover to see other rain measurements)
** Current wind speed in m/s (hover to see current wind gust speed)